Time;durP1;ratioP1;P1;durP2;ratioP2;P2;SDS_P1;SDS_P2;PMS_P1;PMS_P2;Temp;Humidity;BMP_temperature;BMP_pressure;BME280_temperature;BME280_humidity;BME280_pressure;Samples;Min_cycle;Max_cycle;Signal;HPM_P1;HPM_P2
2022/05/20 00:01:51;;;;;;;;;;;11.70;95.20;;;;;;4918147;29;19918;-62
2022/05/20 00:04:18;;;;;;;;;;;11.70;95.30;;;;;;4917994;29;19907;-62
2022/05/20 00:06:44;;;;;;;;;;;11.70;95.40;;;;;;4917987;29;19912;-62
2022/05/20 00:09:11;;;;;;;;;;;11.80;95.60;;;;;;4917653;29;20254;-64
2022/05/20 00:11:38;;;;;;;;;;;11.90;95.70;;;;;;4917996;29;20445;-64
2022/05/20 00:14:07;;;;;;;;;;;12.00;95.80;;;;;;4918001;29;20277;-64
2022/05/20 00:16:37;;;;;;;;;;;11.90;95.60;;;;;;4917672;29;19922;-64
2022/05/20 00:19:04;;;;;;;;;;;11.90;95.60;;;;;;4917495;29;19964;-64
2022/05/20 00:21:31;;;;;;;;;;;12.00;95.70;;;;;;4917957;29;20330;-64
2022/05/20 00:23:57;;;;;;;;;;;12.00;95.70;;;;;;4918127;29;20293;-64
2022/05/20 00:26:24;;;;;;;;;;;12.00;95.80;;;;;;4916487;29;20255;-64
2022/05/20 00:28:53;;;;;;;;;;;12.00;95.80;;;;;;4917584;29;19942;-64
2022/05/20 00:31:20;;;;;;;;;;;12.10;95.90;;;;;;4917759;29;20034;-64
2022/05/20 00:33:46;;;;;;;;;;;12.00;95.80;;;;;;4917018;29;20010;-64
2022/05/20 00:36:13;;;;;;;;;;;12.10;95.90;;;;;;4917453;29;19983;-64
2022/05/20 00:38:39;;;;;;;;;;;12.10;95.90;;;;;;4917417;29;20374;-64
2022/05/20 00:41:07;;;;;;;;;;;12.10;95.90;;;;;;4916805;29;20311;-64
2022/05/20 00:43:33;;;;;;;;;;;12.10;96.10;;;;;;4916843;29;19903;-64
2022/05/20 00:46:01;;;;;;;;;;;12.20;96.10;;;;;;4917200;29;19913;-64
2022/05/20 00:48:28;;;;;;;;;;;12.20;96.10;;;;;;4917052;29;20370;-64
2022/05/20 00:50:59;;;;;;;;;;;12.20;96.10;;;;;;4917202;29;19907;-64
2022/05/20 00:53:27;;;;;;;;;;;12.20;96.20;;;;;;4917149;29;19907;-63
2022/05/20 00:55:53;;;;;;;;;;;12.20;96.30;;;;;;4917128;29;19915;-64
2022/05/20 00:58:20;;;;;;;;;;;12.20;96.20;;;;;;4916154;29;19907;-63
2022/05/20 01:00:48;;;;;;;;;;;12.20;96.20;;;;;;4917096;29;20307;-63
2022/05/20 01:03:15;;;;;;;;;;;12.30;96.20;;;;;;4916987;29;19914;-63
2022/05/20 01:05:43;;;;;;;;;;;12.30;96.20;;;;;;4916985;29;19907;-63
2022/05/20 01:08:09;;;;;;;;;;;12.30;96.30;;;;;;4916914;29;19918;-64
2022/05/20 01:10:36;;;;;;;;;;;12.30;96.40;;;;;;4915881;29;19907;-63
2022/05/20 01:13:03;;;;;;;;;;;12.30;96.30;;;;;;4916806;29;19907;-63
2022/05/20 01:15:30;;;;;;;;;;;12.30;96.20;;;;;;4915453;29;20121;-64
2022/05/20 01:17:56;;;;;;;;;;;12.30;96.30;;;;;;4917189;29;19907;-64
2022/05/20 01:20:25;;;;;;;;;;;12.30;96.20;;;;;;4916829;29;19914;-64
2022/05/20 01:22:55;;;;;;;;;;;12.40;96.30;;;;;;4914154;29;20285;-64
2022/05/20 01:25:21;;;;;;;;;;;12.40;96.40;;;;;;4916431;29;19907;-64
2022/05/20 01:27:48;;;;;;;;;;;12.40;96.40;;;;;;4917007;29;19925;-64
2022/05/20 01:30:16;;;;;;;;;;;12.40;96.50;;;;;;4916299;29;19907;-64
2022/05/20 01:32:43;;;;;;;;;;;12.50;96.50;;;;;;4916763;29;19907;-64
2022/05/20 01:35:14;;;;;;;;;;;12.50;96.50;;;;;;4916118;29;20010;-64
2022/05/20 01:37:41;;;;;;;;;;;12.50;96.60;;;;;;4915138;29;19914;-64
2022/05/20 01:40:08;;;;;;;;;;;12.50;96.70;;;;;;4916016;29;19919;-64
2022/05/20 01:42:36;;;;;;;;;;;12.60;96.70;;;;;;4916216;29;19907;-64
2022/05/20 01:45:05;;;;;;;;;;;12.60;96.70;;;;;;4916456;29;19907;-64
2022/05/20 01:47:34;;;;;;;;;;;12.70;96.80;;;;;;4915188;29;19914;-61
2022/05/20 01:50:19;;;;;;;;;;;12.70;96.90;;;;;;4915141;29;20370;-61
2022/05/20 01:52:45;;;;;;;;;;;12.80;96.90;;;;;;4915608;29;19907;-64
2022/05/20 01:55:30;;;;;;;;;;;12.80;97.00;;;;;;4915835;29;19979;-61
2022/05/20 01:58:02;;;;;;;;;;;12.80;96.90;;;;;;4915941;29;19907;-61
2022/05/20 02:00:30;;;;;;;;;;;12.80;97.00;;;;;;4915788;29;19954;-61
2022/05/20 02:02:57;;;;;;;;;;;12.90;97.10;;;;;;4914619;29;19911;-61
2022/05/20 02:05:25;;;;;;;;;;;12.90;97.00;;;;;;4914881;29;19911;-61
2022/05/20 02:07:54;;;;;;;;;;;12.90;97.00;;;;;;4915690;29;19915;-64
2022/05/20 02:10:28;;;;;;;;;;;12.80;96.90;;;;;;4915988;29;19907;-64
2022/05/20 02:12:56;;;;;;;;;;;12.90;97.00;;;;;;4913725;29;20048;-63
2022/05/20 02:15:31;;;;;;;;;;;12.90;97.00;;;;;;4914629;29;19926;-64
2022/05/20 02:18:00;;;;;;;;;;;12.90;97.00;;;;;;4916067;29;20458;-63
2022/05/20 02:20:56;;;;;;;;;;;12.90;97.10;;;;;;4914792;29;19907;-61
2022/05/20 02:23:24;;;;;;;;;;;12.90;97.10;;;;;;4903316;29;19919;-64
2022/05/20 02:25:52;;;;;;;;;;;12.90;97.20;;;;;;4914599;29;20341;-64
2022/05/20 02:28:22;;;;;;;;;;;12.90;97.20;;;;;;4914525;29;19914;-64
2022/05/20 02:30:49;;;;;;;;;;;13.00;97.30;;;;;;4914629;29;19919;-64
2022/05/20 02:33:17;;;;;;;;;;;13.00;97.30;;;;;;4914588;29;20358;-64
2022/05/20 02:35:43;;;;;;;;;;;13.00;97.30;;;;;;4898569;29;20424;-64
2022/05/20 02:38:11;;;;;;;;;;;13.00;97.30;;;;;;4914714;29;19907;-65
2022/05/20 02:40:38;;;;;;;;;;;12.80;97.20;;;;;;4915590;29;19911;-65
2022/05/20 02:43:05;;;;;;;;;;;12.90;97.40;;;;;;4914348;29;19914;-65
2022/05/20 02:45:33;;;;;;;;;;;12.90;97.40;;;;;;4915582;29;19907;-64
2022/05/20 02:47:59;;;;;;;;;;;12.90;97.40;;;;;;4914680;29;19935;-64
2022/05/20 02:50:26;;;;;;;;;;;12.90;97.50;;;;;;4915905;29;19937;-64
2022/05/20 02:52:52;;;;;;;;;;;12.90;97.50;;;;;;4915493;29;19930;-64
2022/05/20 02:55:19;;;;;;;;;;;13.00;97.60;;;;;;4915650;29;20289;-64
2022/05/20 02:57:46;;;;;;;;;;;13.00;97.60;;;;;;4915454;29;19907;-64
2022/05/20 03:05:42;;;;;;;;;;;13.10;97.70;;;;;;4917845;29;19998;-61
2022/05/20 03:08:09;;;;;;;;;;;13.10;97.80;;;;;;4919110;29;20322;-64
2022/05/20 03:10:35;;;;;;;;;;;13.20;97.80;;;;;;4919163;29;20322;-64
2022/05/20 03:13:02;;;;;;;;;;;13.20;97.80;;;;;;4918712;29;20366;-62
2022/05/20 03:15:29;;;;;;;;;;;13.20;97.90;;;;;;4917458;29;19919;-62
2022/05/20 03:17:56;;;;;;;;;;;13.20;97.90;;;;;;4918976;29;19919;-64
2022/05/20 03:20:23;;;;;;;;;;;13.20;97.90;;;;;;4918969;29;19907;-64
2022/05/20 03:22:49;;;;;;;;;;;13.20;97.90;;;;;;4919061;29;19923;-64
2022/05/20 03:25:16;;;;;;;;;;;13.20;97.90;;;;;;4918754;29;19998;-64
2022/05/20 03:27:42;;;;;;;;;;;13.20;97.90;;;;;;4919103;29;19907;-62
2022/05/20 03:30:10;;;;;;;;;;;13.20;97.90;;;;;;4918190;29;19907;-62
2022/05/20 03:32:37;;;;;;;;;;;13.30;98.00;;;;;;4901565;29;19907;-62
2022/05/20 03:35:04;;;;;;;;;;;13.30;98.00;;;;;;4917077;29;19907;-61
2022/05/20 03:37:31;;;;;;;;;;;13.30;98.00;;;;;;4918040;29;19907;-61
2022/05/20 03:39:57;;;;;;;;;;;13.40;98.00;;;;;;4918090;29;20350;-61
2022/05/20 03:42:24;;;;;;;;;;;13.50;98.10;;;;;;4916778;29;19918;-62
2022/05/20 03:44:51;;;;;;;;;;;13.40;98.10;;;;;;4918223;29;19913;-64
2022/05/20 03:47:18;;;;;;;;;;;13.40;98.10;;;;;;4917426;29;19911;-63
2022/05/20 03:49:45;;;;;;;;;;;13.50;98.10;;;;;;4918265;29;19907;-64
2022/05/20 03:52:11;;;;;;;;;;;13.50;98.20;;;;;;4917709;29;19907;-64
2022/05/20 03:54:38;;;;;;;;;;;13.60;98.10;;;;;;4917950;29;20346;-64
2022/05/20 03:57:05;;;;;;;;;;;13.60;98.20;;;;;;4918180;29;19923;-64
2022/05/20 03:59:41;;;;;;;;;;;13.60;98.20;;;;;;4917917;29;19911;-64
2022/05/20 04:02:09;;;;;;;;;;;13.60;98.20;;;;;;4918596;29;20012;-64
2022/05/20 04:04:36;;;;;;;;;;;13.70;98.20;;;;;;4918054;29;19908;-64
2022/05/20 04:07:04;;;;;;;;;;;13.70;98.20;;;;;;4918012;29;19914;-64
2022/05/20 04:09:30;;;;;;;;;;;13.70;98.20;;;;;;4918136;29;19990;-64
2022/05/20 04:11:58;;;;;;;;;;;13.70;98.20;;;;;;4916736;29;19918;-64
2022/05/20 04:14:26;;;;;;;;;;;13.70;98.30;;;;;;4919630;29;19922;-62
2022/05/20 04:16:57;;;;;;;;;;;13.70;98.20;;;;;;4932411;29;19915;-62
2022/05/20 04:19:26;;;;;;;;;;;13.80;98.20;;;;;;4933459;29;20005;-62
2022/05/20 04:21:53;;;;;;;;;;;13.80;98.30;;;;;;4936258;29;19907;-62
2022/05/20 04:24:20;;;;;;;;;;;13.80;98.30;;;;;;4936660;29;19950;-64
2022/05/20 04:26:47;;;;;;;;;;;13.80;98.30;;;;;;4933331;29;20231;-62
2022/05/20 04:29:13;;;;;;;;;;;13.80;98.30;;;;;;4924684;29;20021;-61
2022/05/20 04:31:41;;;;;;;;;;;13.80;98.30;;;;;;4897653;29;19983;-61
2022/05/20 04:34:07;;;;;;;;;;;13.80;98.30;;;;;;4882072;29;19965;-61
2022/05/20 04:36:34;;;;;;;;;;;13.90;98.30;;;;;;4898463;29;19984;-63
2022/05/20 04:39:00;;;;;;;;;;;13.80;98.30;;;;;;4898360;29;19923;-64
2022/05/20 07:23:32;;;;;;;;;;;14.20;98.90;;;;;;4943235;28;20017;-63
2022/05/20 07:25:59;;;;;;;;;;;14.20;98.90;;;;;;4950178;28;19972;-63
2022/05/20 07:28:26;;;;;;;;;;;14.20;98.90;;;;;;4954170;28;19962;-63
2022/05/20 07:30:52;;;;;;;;;;;14.20;98.90;;;;;;4949630;29;19921;-63
2022/05/20 07:33:19;;;;;;;;;;;14.20;98.90;;;;;;4952043;29;19914;-63
2022/05/20 07:35:46;;;;;;;;;;;14.20;98.90;;;;;;4950359;29;19927;-62
2022/05/20 07:38:13;;;;;;;;;;;14.20;98.90;;;;;;4946715;29;20504;-62
2022/05/20 07:40:40;;;;;;;;;;;14.20;98.90;;;;;;4952491;29;20013;-62
2022/05/20 07:43:06;;;;;;;;;;;14.20;98.90;;;;;;4928303;29;19962;-63
2022/05/20 07:45:33;;;;;;;;;;;14.20;98.90;;;;;;4951811;28;19918;-63
2022/05/20 07:48:00;;;;;;;;;;;14.20;98.90;;;;;;4950028;29;20017;-63
2022/05/20 07:50:26;;;;;;;;;;;14.10;98.90;;;;;;4949151;28;19914;-63
2022/05/20 07:55:38;;;;;;;;;;;14.10;98.90;;;;;;4930031;29;20407;-63
2022/05/20 07:58:05;;;;;;;;;;;14.10;98.90;;;;;;4935793;28;20292;-63
2022/05/20 08:00:31;;;;;;;;;;;14.10;99.00;;;;;;4932644;29;20274;-63
2022/05/20 08:03:00;;;;;;;;;;;14.10;98.90;;;;;;4936337;29;20365;-63
2022/05/20 08:05:27;;;;;;;;;;;14.10;98.90;;;;;;4951128;28;19930;-64
2022/05/20 08:07:56;;;;;;;;;;;14.10;98.90;;;;;;4951140;28;20243;-63
2022/05/20 08:10:22;;;;;;;;;;;14.10;98.90;;;;;;4948397;28;19957;-63
2022/05/20 08:12:49;;;;;;;;;;;14.10;98.90;;;;;;4950452;28;19918;-62
2022/05/20 08:15:16;;;;;;;;;;;14.10;98.90;;;;;;4940488;29;20285;-63
2022/05/20 08:17:43;;;;;;;;;;;14.10;98.90;;;;;;4947866;29;20170;-62
2022/05/20 08:20:13;;;;;;;;;;;14.10;98.90;;;;;;4954722;28;19914;-63
2022/05/20 08:22:40;;;;;;;;;;;14.10;98.90;;;;;;4949238;28;19926;-63
2022/05/20 08:25:07;;;;;;;;;;;14.10;98.90;;;;;;4949705;28;19922;-63
2022/05/20 08:27:33;;;;;;;;;;;14.00;98.90;;;;;;4948844;28;19910;-62
2022/05/20 08:30:04;;;;;;;;;;;14.10;98.90;;;;;;4956640;28;19915;-62
2022/05/20 08:32:31;;;;;;;;;;;14.00;98.90;;;;;;4960341;28;19918;-62
2022/05/20 08:34:57;;;;;;;;;;;14.10;98.90;;;;;;4953920;28;20009;-62
2022/05/20 08:37:24;;;;;;;;;;;14.00;98.90;;;;;;4952146;28;19985;-62
2022/05/20 08:39:50;;;;;;;;;;;14.00;98.90;;;;;;4950276;29;20268;-62
2022/05/20 08:42:18;;;;;;;;;;;14.00;98.90;;;;;;4950720;29;20317;-62
2022/05/20 08:44:45;;;;;;;;;;;14.00;98.90;;;;;;4934830;29;19918;-62
2022/05/20 08:47:27;;;;;;;;;;;14.10;98.90;;;;;;4953546;28;19910;-62
2022/05/20 08:49:57;;;;;;;;;;;14.00;98.90;;;;;;4951793;29;20054;-62
2022/05/20 08:52:25;;;;;;;;;;;14.00;98.90;;;;;;4951133;29;20269;-62
2022/05/20 08:54:51;;;;;;;;;;;14.00;98.90;;;;;;4932321;29;20320;-63
2022/05/20 08:57:28;;;;;;;;;;;14.00;98.90;;;;;;4947039;29;19918;-63
2022/05/20 08:59:55;;;;;;;;;;;14.00;98.90;;;;;;4950989;29;19989;-62
2022/05/20 09:02:21;;;;;;;;;;;14.00;98.90;;;;;;4951429;28;19966;-62
2022/05/20 09:04:48;;;;;;;;;;;14.00;98.90;;;;;;4951270;28;19910;-63
2022/05/20 09:07:16;;;;;;;;;;;14.00;98.90;;;;;;4951578;29;19906;-62
2022/05/20 09:09:43;;;;;;;;;;;14.00;98.90;;;;;;4933784;29;19918;-63
2022/05/20 09:12:10;;;;;;;;;;;13.90;98.90;;;;;;4948658;29;19962;-64
2022/05/20 09:17:22;;;;;;;;;;;14.00;98.90;;;;;;4947482;28;19929;-63
2022/05/20 09:19:56;;;;;;;;;;;14.00;98.90;;;;;;4947389;28;19918;-63
2022/05/20 09:22:30;;;;;;;;;;;13.90;98.90;;;;;;4932557;29;19961;-62
2022/05/20 09:24:56;;;;;;;;;;;13.90;98.90;;;;;;4931284;29;19985;-63
2022/05/20 09:27:28;;;;;;;;;;;13.90;98.90;;;;;;4947222;29;19915;-64
2022/05/20 09:30:00;;;;;;;;;;;13.90;98.90;;;;;;4946129;29;19914;-64
2022/05/20 09:32:27;;;;;;;;;;;13.90;98.90;;;;;;4944353;29;19915;-67
2022/05/20 09:35:13;;;;;;;;;;;13.90;98.90;;;;;;4946129;29;19962;-63
2022/05/20 09:37:40;;;;;;;;;;;13.90;98.80;;;;;;4945858;29;19925;-64
2022/05/20 09:40:19;;;;;;;;;;;13.90;98.90;;;;;;4948285;29;19917;-64
2022/05/20 09:43:04;;;;;;;;;;;13.80;98.90;;;;;;4941684;29;20399;-64
2022/05/20 09:45:51;;;;;;;;;;;13.80;98.80;;;;;;4932335;29;19910;-63
2022/05/20 10:03:22;;;;;;;;;;;13.70;98.80;;;;;;4936264;28;19982;-63
2022/05/20 10:06:11;;;;;;;;;;;13.70;98.80;;;;;;4921524;29;19927;-64
2022/05/20 10:08:58;;;;;;;;;;;13.70;98.80;;;;;;4921863;29;20393;-64
2022/05/20 10:11:32;;;;;;;;;;;13.70;98.80;;;;;;4913675;29;19966;-63
2022/05/20 10:13:58;;;;;;;;;;;13.70;98.80;;;;;;4934228;28;19906;-63
2022/05/20 10:16:43;;;;;;;;;;;13.70;98.80;;;;;;4935308;29;19926;-64
2022/05/20 10:19:11;;;;;;;;;;;13.70;98.80;;;;;;4926295;29;19910;-62
2022/05/20 10:21:37;;;;;;;;;;;13.70;98.80;;;;;;4934058;29;19978;-62
2022/05/20 10:24:13;;;;;;;;;;;13.70;98.80;;;;;;4930978;29;19918;-63
2022/05/20 10:26:51;;;;;;;;;;;13.70;98.80;;;;;;4923601;29;19911;-62
2022/05/20 10:34:55;;;;;;;;;;;13.70;98.80;;;;;;4912602;29;20396;-62
2022/05/20 10:37:33;;;;;;;;;;;13.70;98.80;;;;;;4910366;29;19926;-63
2022/05/20 10:40:18;;;;;;;;;;;13.70;98.80;;;;;;4926087;29;19917;-64
2022/05/20 10:42:45;;;;;;;;;;;13.70;98.80;;;;;;4927225;29;19930;-63
2022/05/20 10:48:41;;;;;;;;;;;13.60;98.80;;;;;;4931082;29;19973;-63
2022/05/20 10:50:53;;;;;;;;;;;13.70;98.80;;;;;;4920141;29;19914;-64
2022/05/20 10:53:38;;;;;;;;;;;13.70;98.80;;;;;;4911725;29;20409;-61
2022/05/20 10:56:11;;;;;;;;;;;13.70;98.80;;;;;;4938477;29;20379;-61
2022/05/20 10:58:50;;;;;;;;;;;13.70;98.80;;;;;;4931883;29;20494;-61
2022/05/20 11:01:16;;;;;;;;;;;13.70;98.80;;;;;;4938351;29;20429;-62
2022/05/20 11:12:12;;;;;;;;;;;13.70;98.80;;;;;;4943346;28;20432;-63
2022/05/20 11:14:57;;;;;;;;;;;13.70;98.80;;;;;;4937226;28;20344;-63
2022/05/20 11:17:39;;;;;;;;;;;13.70;98.80;;;;;;4950831;28;20244;-63
2022/05/20 11:20:24;;;;;;;;;;;13.70;98.80;;;;;;4922132;29;19910;-63
2022/05/20 11:22:55;;;;;;;;;;;13.70;98.90;;;;;;4932809;29;19921;-64
2022/05/20 11:25:29;;;;;;;;;;;13.80;98.90;;;;;;4932321;29;19914;-62
2022/05/20 11:27:55;;;;;;;;;;;13.80;98.90;;;;;;4935716;29;19921;-63
2022/05/20 11:30:40;;;;;;;;;;;13.80;98.90;;;;;;4956671;28;19914;-63
2022/05/20 11:33:16;;;;;;;;;;;13.80;98.90;;;;;;4945898;29;20342;-63
2022/05/20 11:35:59;;;;;;;;;;;13.80;98.90;;;;;;4952475;28;19918;-62
2022/05/20 11:38:35;;;;;;;;;;;13.80;99.00;;;;;;4943710;29;20439;-62
2022/05/20 11:41:05;;;;;;;;;;;13.80;99.00;;;;;;4942490;29;19918;-66
2022/05/20 11:43:31;;;;;;;;;;;13.80;98.90;;;;;;4952709;28;19911;-62
2022/05/20 11:46:20;;;;;;;;;;;13.90;99.00;;;;;;4952351;28;19910;-63
2022/05/20 11:48:59;;;;;;;;;;;13.90;99.00;;;;;;4925086;29;19910;-63
2022/05/20 11:51:34;;;;;;;;;;;13.90;99.00;;;;;;4951537;28;19915;-63
2022/05/20 11:54:02;;;;;;;;;;;13.90;99.00;;;;;;4945125;28;20000;-62
2022/05/20 11:56:47;;;;;;;;;;;13.90;99.00;;;;;;4941714;29;19933;-62
2022/05/20 11:59:18;;;;;;;;;;;13.90;99.00;;;;;;4939027;29;19921;-62
2022/05/20 12:01:47;;;;;;;;;;;14.00;99.00;;;;;;4952440;28;19960;-62
2022/05/20 12:04:14;;;;;;;;;;;14.00;99.00;;;;;;4934294;29;20040;-62
2022/05/20 12:07:12;;;;;;;;;;;14.00;99.10;;;;;;4941396;28;20007;-62
2022/05/20 12:09:40;;;;;;;;;;;14.00;99.00;;;;;;4926183;29;20336;-62
2022/05/20 18:39:17;;;;;;;;;;;13.10;98.90;;;;;;4931491;28;19947;-63
2022/05/20 18:39:34;;;;;;;;;;;13.00;98.90;;;;;;4937855;29;19934;-63
2022/05/20 18:42:01;;;;;;;;;;;13.00;98.90;;;;;;4936087;29;19917;-64
2022/05/20 18:44:27;;;;;;;;;;;13.00;98.90;;;;;;4937532;29;19911;-63
2022/05/20 18:46:54;;;;;;;;;;;13.00;98.90;;;;;;4938603;29;20310;-63
2022/05/20 18:49:21;;;;;;;;;;;13.00;98.90;;;;;;4936746;29;19930;-63
2022/05/20 18:51:47;;;;;;;;;;;13.00;98.90;;;;;;4936462;29;19927;-64
2022/05/20 18:54:14;;;;;;;;;;;13.00;98.90;;;;;;4938138;29;19911;-63
2022/05/20 18:56:40;;;;;;;;;;;13.00;98.90;;;;;;4938371;29;20009;-64
2022/05/20 18:59:07;;;;;;;;;;;13.00;98.90;;;;;;4936815;29;19966;-64
2022/05/20 19:01:33;;;;;;;;;;;13.00;99.00;;;;;;4937456;29;19911;-64
2022/05/20 19:04:00;;;;;;;;;;;13.10;98.90;;;;;;4937316;29;20032;-64
2022/05/20 19:06:27;;;;;;;;;;;13.10;99.00;;;;;;4937332;29;19915;-64
2022/05/20 19:08:54;;;;;;;;;;;13.10;99.00;;;;;;4938367;29;20379;-64
2022/05/20 19:11:24;;;;;;;;;;;13.20;99.00;;;;;;4937040;29;20341;-64
2022/05/20 19:13:50;;;;;;;;;;;13.20;99.00;;;;;;4921007;29;19914;-64
2022/05/20 19:16:17;;;;;;;;;;;13.20;99.00;;;;;;4920928;29;19959;-64
2022/05/20 19:18:44;;;;;;;;;;;13.20;99.00;;;;;;4936190;29;20357;-64
2022/05/20 19:21:10;;;;;;;;;;;13.20;99.00;;;;;;4937138;29;19910;-64
2022/05/20 19:23:37;;;;;;;;;;;13.20;99.00;;;;;;4938023;29;19982;-64
2022/05/20 19:26:05;;;;;;;;;;;13.20;99.00;;;;;;4920238;29;20496;-64
2022/05/20 19:28:31;;;;;;;;;;;13.20;99.00;;;;;;4920288;29;20357;-64
2022/05/20 19:30:58;;;;;;;;;;;13.20;99.00;;;;;;4936379;29;20044;-64
2022/05/20 23:38:04;;;;;;;;;;;14.30;99.50;;;;;;4942260;28;19994;-64
2022/05/20 23:40:30;;;;;;;;;;;14.30;99.50;;;;;;4945685;29;20380;-64
2022/05/20 23:42:57;;;;;;;;;;;14.30;99.50;;;;;;4955733;28;19907;-65
2022/05/20 23:45:24;;;;;;;;;;;14.30;99.50;;;;;;4940494;29;19997;-64
2022/05/20 23:47:50;;;;;;;;;;;14.30;99.50;;;;;;4955883;29;19907;-65
2022/05/20 23:50:18;;;;;;;;;;;14.40;99.50;;;;;;4938934;29;19907;-65
2022/05/20 23:52:44;;;;;;;;;;;14.40;99.50;;;;;;4967290;28;19961;-66
2022/05/20 23:57:57;;;;;;;;;;;14.50;99.50;;;;;;4941272;29;19962;-65
